createdAt,value
2018-04-01T00:00:32.186Z,0.00
2018-04-01T00:01:32.360Z,0.00
2018-04-01T00:02:32.540Z,0.00
2018-04-01T00:03:32.719Z,0.00
2018-04-01T00:04:32.897Z,0.00
2018-04-01T00:05:33.087Z,0.00
2018-04-01T00:06:33.284Z,0.00
2018-04-01T00:07:33.476Z,0.00
2018-04-01T00:08:33.662Z,0.00
2018-04-01T00:09:33.860Z,0.00
2018-04-01T00:10:36.212Z,0.00
2018-04-01T00:11:34.194Z,0.00
2018-04-01T00:12:34.367Z,0.00
2018-04-01T00:13:34.546Z,0.00
2018-04-01T00:14:34.727Z,0.00
2018-04-01T00:15:34.922Z,0.00
2018-04-01T00:16:35.114Z,0.00
2018-04-01T00:17:35.290Z,0.00
2018-04-01T00:18:35.467Z,0.00
2018-04-01T00:19:35.655Z,0.00
2018-04-01T00:20:35.827Z,0.00
2018-04-01T00:21:36.013Z,0.00
2018-04-01T00:22:36.192Z,0.00
2018-04-01T00:23:36.371Z,0.00
2018-04-01T00:24:36.542Z,0.00
2018-04-01T00:25:36.724Z,0.00
2018-04-01T00:26:36.908Z,0.00
2018-04-01T00:27:37.088Z,0.00
2018-04-01T00:28:37.255Z,0.00
2018-04-01T00:29:37.435Z,0.00
2018-04-01T00:30:37.630Z,0.00
2018-04-01T00:31:37.810Z,0.00
2018-04-01T00:32:37.989Z,0.00
2018-04-01T00:33:38.169Z,0.00
2018-04-01T00:34:38.351Z,0.00
2018-04-01T00:35:38.527Z,0.00
2018-04-01T00:36:38.704Z,0.00
2018-04-01T00:37:38.882Z,0.00
2018-04-01T00:38:39.059Z,0.00
2018-04-01T00:39:39.240Z,0.00
2018-04-01T00:40:39.416Z,0.00
2018-04-01T00:41:39.594Z,0.00
2018-04-01T00:42:39.784Z,0.00
2018-04-01T00:43:39.971Z,0.00
2018-04-01T00:44:40.150Z,0.00
2018-04-01T00:45:40.333Z,0.00
2018-04-01T00:46:40.512Z,0.00
2018-04-01T00:47:40.727Z,0.00
2018-04-01T00:48:44.599Z,0.00
2018-04-01T00:49:41.054Z,0.00
2018-04-01T00:50:41.221Z,0.00
2018-04-01T00:51:42.782Z,0.00
2018-04-01T00:52:43.099Z,0.00
2018-04-01T00:53:44.181Z,0.00
2018-04-01T00:54:41.927Z,0.00
2018-04-01T00:55:42.036Z,0.00
2018-04-01T00:56:42.208Z,0.00
2018-04-01T00:57:42.381Z,0.00
2018-04-01T00:58:42.561Z,0.00
2018-04-01T00:59:42.740Z,0.00
2018-04-01T01:00:42.921Z,0.00
2018-04-01T01:01:43.102Z,0.00
2018-04-01T01:02:43.278Z,0.00
2018-04-01T01:03:43.457Z,0.00
2018-04-01T01:04:43.630Z,0.00
2018-04-01T01:05:43.815Z,0.00
2018-04-01T01:06:43.998Z,0.00
2018-04-01T01:07:44.166Z,0.00
2018-04-01T01:08:44.345Z,0.00
2018-04-01T01:09:44.526Z,0.00
2018-04-01T01:10:44.709Z,0.00
2018-04-01T01:11:44.892Z,0.00
2018-04-01T01:12:45.073Z,0.00
2018-04-01T01:13:45.255Z,0.00
2018-04-01T01:14:45.426Z,0.00
2018-04-01T01:15:45.596Z,0.00
2018-04-01T01:16:45.775Z,0.00
2018-04-01T01:17:45.952Z,0.00
2018-04-01T01:18:46.137Z,0.00
2018-04-01T01:19:46.308Z,0.00
2018-04-01T01:20:46.489Z,0.00
2018-04-01T01:21:46.668Z,0.00
2018-04-01T01:22:46.848Z,0.00
2018-04-01T01:23:47.021Z,0.00
2018-04-01T01:24:47.196Z,0.00
2018-04-01T01:25:47.374Z,0.00
2018-04-01T01:26:47.556Z,0.00
2018-04-01T01:27:47.734Z,0.00
2018-04-01T01:28:47.914Z,0.00
2018-04-01T01:29:48.092Z,0.00
2018-04-01T01:30:48.266Z,0.00
2018-04-01T01:31:48.439Z,0.00
2018-04-01T01:32:48.624Z,0.00
2018-04-01T01:33:48.799Z,0.00
2018-04-01T01:34:48.979Z,0.00
2018-04-01T01:35:49.154Z,0.00
2018-04-01T01:36:49.337Z,0.00
2018-04-01T01:37:49.512Z,0.00
2018-04-01T01:38:49.686Z,0.00
2018-04-01T01:39:49.865Z,0.00
2018-04-01T01:40:50.038Z,0.00
2018-04-01T01:41:50.221Z,0.00
2018-04-01T01:42:50.395Z,0.00
2018-04-01T01:43:50.576Z,0.00
2018-04-01T01:44:50.747Z,0.00
2018-04-01T01:45:50.922Z,0.00
2018-04-01T01:46:51.099Z,0.00
2018-04-01T01:47:51.271Z,0.00
2018-04-01T01:48:51.448Z,0.00
2018-04-01T01:49:51.628Z,0.00
2018-04-01T01:50:51.805Z,0.00
2018-04-01T01:51:51.979Z,0.00
2018-04-01T01:52:52.155Z,0.00
2018-04-01T01:53:52.335Z,0.00
2018-04-01T01:54:52.510Z,0.00
2018-04-01T01:55:52.690Z,0.00
2018-04-01T01:56:52.876Z,0.00
2018-04-01T01:57:53.051Z,0.00
2018-04-01T01:58:53.233Z,0.00
2018-04-01T01:59:53.405Z,0.00
2018-04-01T02:00:53.588Z,0.00
2018-04-01T02:01:53.762Z,0.00
2018-04-01T02:02:53.946Z,0.00
2018-04-01T02:03:54.121Z,0.00
2018-04-01T02:04:54.300Z,0.00
2018-04-01T02:05:54.481Z,0.00
2018-04-01T02:06:54.658Z,0.00
2018-04-01T02:07:54.835Z,0.00
2018-04-01T02:08:55.023Z,0.00
2018-04-01T02:09:55.206Z,0.00
2018-04-01T02:10:55.373Z,0.00
2018-04-01T02:11:55.554Z,0.00
2018-04-01T02:12:55.740Z,0.00
2018-04-01T02:13:55.915Z,0.00
2018-04-01T02:14:56.102Z,0.00
2018-04-01T02:15:56.269Z,0.00
2018-04-01T02:16:56.453Z,0.00
2018-04-01T02:17:56.622Z,0.00
2018-04-01T02:18:56.806Z,0.00
2018-04-01T02:19:56.976Z,0.00
2018-04-01T02:20:57.157Z,0.00
2018-04-01T02:21:57.341Z,0.00
2018-04-01T02:22:57.516Z,0.00
2018-04-01T02:23:57.697Z,0.00
2018-04-01T02:24:57.879Z,0.00
2018-04-01T02:25:58.054Z,0.00
2018-04-01T02:26:58.233Z,0.00
2018-04-01T02:27:58.417Z,0.00
2018-04-01T02:28:58.604Z,0.00
2018-04-01T02:29:59.023Z,0.00
2018-04-01T02:30:59.246Z,0.00
2018-04-01T02:31:59.336Z,0.00
2018-04-01T02:32:59.308Z,0.00
2018-04-01T02:33:59.776Z,0.00
2018-04-01T02:34:59.721Z,0.00
2018-04-01T02:35:59.763Z,0.00
2018-04-01T02:36:59.944Z,0.00
2018-04-01T02:38:00.126Z,0.00
2018-04-01T02:39:00.310Z,0.00
2018-04-01T02:40:00.496Z,0.00
2018-04-01T02:41:00.680Z,0.00
2018-04-01T02:42:00.853Z,0.00
2018-04-01T02:43:01.034Z,0.00
2018-04-01T02:44:01.214Z,0.00
2018-04-01T02:45:01.395Z,0.00
2018-04-01T02:46:01.572Z,0.00
2018-04-01T02:47:01.760Z,0.00
2018-04-01T02:48:01.936Z,0.00
2018-04-01T02:49:02.120Z,0.00
2018-04-01T02:50:02.296Z,0.00
2018-04-01T02:51:02.476Z,0.00
2018-04-01T02:52:02.658Z,0.00
2018-04-01T02:53:02.839Z,0.00
2018-04-01T02:54:03.015Z,0.00
2018-04-01T02:55:03.194Z,0.00
2018-04-01T02:56:03.373Z,0.00
2018-04-01T02:57:03.553Z,0.00
2018-04-01T02:58:03.728Z,0.00
2018-04-01T02:59:03.900Z,0.00
2018-04-01T03:00:04.068Z,0.00
2018-04-01T03:01:04.249Z,0.00
2018-04-01T03:02:04.432Z,0.00
2018-04-01T03:03:04.611Z,0.00
2018-04-01T03:04:04.784Z,0.00
2018-04-01T03:05:04.969Z,0.00
2018-04-01T03:06:05.145Z,0.00
2018-04-01T03:07:05.322Z,0.00
2018-04-01T03:08:05.502Z,0.00
2018-04-01T03:09:05.703Z,0.00
2018-04-01T03:10:05.869Z,0.00
2018-04-01T03:11:06.092Z,0.00
2018-04-01T03:12:06.232Z,0.00
2018-04-01T03:13:06.421Z,0.00
2018-04-01T03:14:06.596Z,0.00
2018-04-01T03:15:06.782Z,0.00
2018-04-01T03:16:06.953Z,0.00
2018-04-01T03:17:07.134Z,0.00
2018-04-01T03:18:07.311Z,0.00
2018-04-01T03:19:07.495Z,0.00
2018-04-01T03:20:07.674Z,0.00
2018-04-01T03:21:07.853Z,0.00
2018-04-01T03:22:08.036Z,0.00
2018-04-01T03:23:08.209Z,0.00
2018-04-01T03:24:08.388Z,0.00
2018-04-01T03:25:08.567Z,0.00
2018-04-01T03:26:08.744Z,0.00
2018-04-01T03:27:08.918Z,0.00
2018-04-01T03:28:09.100Z,0.00
2018-04-01T03:29:09.279Z,0.00
2018-04-01T03:30:09.456Z,0.00
2018-04-01T03:31:09.637Z,0.00
2018-04-01T03:32:09.808Z,0.00
2018-04-01T03:33:09.989Z,0.00
2018-04-01T03:34:10.165Z,0.00
2018-04-01T03:35:10.343Z,0.00
2018-04-01T03:36:10.516Z,0.00
2018-04-01T03:37:10.687Z,0.00
2018-04-01T03:38:10.863Z,0.00
2018-04-01T03:39:11.042Z,0.00
2018-04-01T03:40:11.220Z,0.00
2018-04-01T03:41:11.403Z,0.00
2018-04-01T03:42:11.582Z,0.00
2018-04-01T03:43:11.759Z,0.00
2018-04-01T03:44:11.939Z,0.00
2018-04-01T03:45:12.114Z,0.00
2018-04-01T03:46:12.291Z,0.00
2018-04-01T03:47:12.473Z,0.00
2018-04-01T03:48:12.638Z,0.00
2018-04-01T03:49:12.812Z,0.00
2018-04-01T03:50:12.995Z,0.00
2018-04-01T03:51:13.174Z,0.00
2018-04-01T03:52:13.351Z,0.00
2018-04-01T03:53:13.524Z,0.00
2018-04-01T03:54:13.701Z,0.00
2018-04-01T03:55:13.880Z,0.00
2018-04-01T03:56:14.053Z,0.00
2018-04-01T03:57:14.231Z,0.00
2018-04-01T03:58:14.412Z,0.00
2018-04-01T03:59:14.587Z,0.00
2018-04-01T04:00:14.765Z,0.00
2018-04-01T04:01:14.934Z,0.00
2018-04-01T04:02:15.105Z,0.00
2018-04-01T04:03:15.293Z,0.00
2018-04-01T04:04:15.479Z,0.00
2018-04-01T04:05:15.673Z,0.00
2018-04-01T04:06:15.826Z,0.00
2018-04-01T04:07:15.998Z,0.00
2018-04-01T04:08:16.183Z,0.00
2018-04-01T04:09:16.364Z,0.00
2018-04-01T04:10:16.548Z,0.00
2018-04-01T04:11:16.726Z,0.00
2018-04-01T04:12:16.900Z,0.00
2018-04-01T04:13:17.075Z,0.00
2018-04-01T04:14:17.246Z,0.00
2018-04-01T04:15:17.428Z,0.00
2018-04-01T04:16:17.597Z,0.00
2018-04-01T04:17:17.774Z,0.00
2018-04-01T04:18:17.949Z,0.00
2018-04-01T04:19:18.132Z,0.00
2018-04-01T04:20:18.308Z,0.00
2018-04-01T04:21:18.492Z,0.00
2018-04-01T04:22:18.658Z,0.00
2018-04-01T04:23:18.830Z,0.00
2018-04-01T04:24:19.009Z,0.00
2018-04-01T04:25:19.178Z,0.00
2018-04-01T04:26:19.353Z,0.00
2018-04-01T04:27:19.541Z,0.00
2018-04-01T04:28:19.722Z,0.00
2018-04-01T04:29:19.895Z,0.00
2018-04-01T04:30:20.072Z,0.00
2018-04-01T04:31:20.249Z,0.00
2018-04-01T04:32:20.429Z,0.00
2018-04-01T04:33:20.606Z,0.00
2018-04-01T04:34:20.790Z,0.00
2018-04-01T04:35:20.964Z,0.00
2018-04-01T04:36:21.149Z,0.00
2018-04-01T04:37:21.344Z,0.00
2018-04-01T04:38:21.515Z,0.00
2018-04-01T04:39:21.703Z,0.00
2018-04-01T04:40:21.876Z,0.00
2018-04-01T04:41:22.050Z,0.00
2018-04-01T04:42:22.266Z,0.00
2018-04-01T04:43:22.438Z,0.00
2018-04-01T04:44:22.612Z,0.00
2018-04-01T04:45:22.794Z,0.00
2018-04-01T04:46:22.971Z,0.00
2018-04-01T04:47:23.150Z,0.00
2018-04-01T04:48:23.335Z,0.00
2018-04-01T04:49:23.525Z,0.00
2018-04-01T04:50:23.695Z,0.00
2018-04-01T04:51:25.499Z,0.00
2018-04-01T04:52:24.037Z,0.00
2018-04-01T04:53:24.215Z,0.00
2018-04-01T04:54:24.388Z,0.00
2018-04-01T04:55:24.570Z,0.00
2018-04-01T04:56:24.798Z,0.00
2018-04-01T04:57:24.934Z,0.00
2018-04-01T04:58:25.115Z,0.00
2018-04-01T04:59:25.291Z,0.00
2018-04-01T05:00:25.472Z,0.00
2018-04-01T05:01:25.653Z,0.00
2018-04-01T05:02:25.853Z,0.00
2018-04-01T05:03:26.011Z,0.00
2018-04-01T05:04:26.190Z,0.00
2018-04-01T05:05:26.475Z,0.00
2018-04-01T05:06:26.519Z,0.00
2018-04-01T05:07:26.704Z,0.00
2018-04-01T05:08:26.885Z,0.00
2018-04-01T05:09:27.058Z,0.00
2018-04-01T05:10:27.242Z,0.00
2018-04-01T05:11:27.421Z,0.00
2018-04-01T05:12:27.598Z,0.00
2018-04-01T05:13:27.799Z,0.00
2018-04-01T05:14:27.978Z,0.00
2018-04-01T05:15:28.152Z,0.00
2018-04-01T05:16:28.332Z,5.63
2018-04-01T05:17:28.518Z,5.63
2018-04-01T05:18:28.713Z,5.63
2018-04-01T05:19:28.886Z,5.63
2018-04-01T05:20:29.069Z,5.63
2018-04-01T05:21:29.252Z,5.63
2018-04-01T05:22:29.418Z,5.63
2018-04-01T05:23:29.598Z,5.63
2018-04-01T05:24:29.772Z,5.63
2018-04-01T05:25:29.952Z,5.63
2018-04-01T05:26:30.126Z,5.63
2018-04-01T05:27:30.302Z,5.63
2018-04-01T05:28:30.475Z,5.63
2018-04-01T05:29:30.648Z,5.63
2018-04-01T05:30:30.827Z,11.25
2018-04-01T05:31:31.007Z,11.25
2018-04-01T05:32:31.196Z,11.25
2018-04-01T05:33:31.373Z,11.25
2018-04-01T05:34:31.552Z,16.88
2018-04-01T05:35:31.734Z,16.88
2018-04-01T05:36:31.915Z,16.88
2018-04-01T05:37:32.088Z,16.88
2018-04-01T05:38:32.269Z,16.88
2018-04-01T05:39:32.442Z,16.88
2018-04-01T05:40:32.619Z,16.88
2018-04-01T05:41:32.812Z,16.88
2018-04-01T05:42:33.016Z,16.88
2018-04-01T05:43:33.194Z,16.88
2018-04-01T05:44:33.372Z,22.50
2018-04-01T05:45:33.551Z,28.13
2018-04-01T05:46:33.731Z,33.75
2018-04-01T05:47:33.908Z,39.38
2018-04-01T05:48:34.150Z,39.38
2018-04-01T05:49:34.274Z,45.00
2018-04-01T05:50:34.445Z,45.00
2018-04-01T05:51:34.629Z,45.00
2018-04-01T05:52:34.808Z,45.00
2018-04-01T05:53:34.993Z,45.00
2018-04-01T05:54:35.170Z,45.00
2018-04-01T05:55:35.347Z,45.00
2018-04-01T05:56:35.524Z,45.00
2018-04-01T05:57:35.702Z,39.38
2018-04-01T05:58:35.885Z,39.38
2018-04-01T05:59:36.068Z,39.38
2018-04-01T06:00:36.251Z,39.38
2018-04-01T06:01:36.436Z,39.38
2018-04-01T06:02:36.613Z,39.38
2018-04-01T06:03:36.790Z,39.38
2018-04-01T06:04:36.970Z,39.38
2018-04-01T06:05:37.151Z,39.38
2018-04-01T06:06:37.318Z,39.38
2018-04-01T06:07:37.496Z,39.38
2018-04-01T06:08:37.675Z,33.75
2018-04-01T06:09:37.877Z,33.75
2018-04-01T06:10:38.055Z,33.75
2018-04-01T06:11:38.223Z,33.75
2018-04-01T06:12:38.398Z,39.38
2018-04-01T06:13:38.584Z,39.38
2018-04-01T06:14:38.769Z,45.00
2018-04-01T06:15:38.949Z,45.00
2018-04-01T06:16:39.126Z,50.63
2018-04-01T06:17:39.315Z,50.63
2018-04-01T06:18:39.485Z,50.63
2018-04-01T06:19:39.661Z,50.63
2018-04-01T06:20:39.842Z,50.63
2018-04-01T06:21:40.020Z,50.63
2018-04-01T06:22:40.197Z,50.63
2018-04-01T06:23:40.372Z,50.63
2018-04-01T06:24:40.548Z,50.63
2018-04-01T06:25:40.721Z,50.63
2018-04-01T06:26:41.236Z,56.25
2018-04-01T06:27:41.111Z,56.25
2018-04-01T06:28:41.292Z,56.25
2018-04-01T06:29:41.465Z,56.25
2018-04-01T06:30:41.648Z,56.25
2018-04-01T06:31:41.825Z,56.25
2018-04-01T06:32:42.005Z,56.25
2018-04-01T06:33:42.192Z,56.25
2018-04-01T06:34:42.375Z,56.25
2018-04-01T06:35:42.556Z,56.25
2018-04-01T06:36:42.739Z,56.25
2018-04-01T06:37:42.915Z,61.88
2018-04-01T06:38:43.094Z,61.88
2018-04-01T06:39:43.269Z,67.50
2018-04-01T06:40:43.448Z,67.50
2018-04-01T06:41:43.629Z,73.13
2018-04-01T06:42:43.810Z,78.75
2018-04-01T06:43:43.987Z,84.38
2018-04-01T06:44:44.178Z,84.38
2018-04-01T06:45:44.363Z,90.00
2018-04-01T06:46:44.532Z,90.00
2018-04-01T06:47:44.718Z,95.63
2018-04-01T06:48:44.895Z,95.63
2018-04-01T06:49:45.073Z,95.63
2018-04-01T06:50:45.284Z,95.63
2018-04-01T06:51:45.438Z,95.63
2018-04-01T06:52:45.606Z,95.63
2018-04-01T06:53:45.779Z,95.63
2018-04-01T06:54:45.959Z,95.63
2018-04-01T06:55:46.140Z,95.63
2018-04-01T06:56:46.315Z,101.25
2018-04-01T06:57:46.496Z,106.88
2018-04-01T06:58:46.681Z,106.88
2018-04-01T06:59:46.866Z,112.50
2018-04-01T07:00:47.293Z,112.50
2018-04-01T07:01:47.162Z,112.50
2018-04-01T07:02:47.343Z,112.50
2018-04-01T07:03:47.531Z,112.50
2018-04-01T07:04:47.712Z,118.13
2018-04-01T07:05:47.890Z,123.75
2018-04-01T07:06:48.068Z,123.75
2018-04-01T07:07:48.250Z,123.75
2018-04-01T07:08:48.735Z,123.75
2018-04-01T07:09:48.823Z,123.75
2018-04-01T07:10:48.885Z,123.75
2018-04-01T07:11:48.947Z,129.38
2018-04-01T07:12:49.124Z,129.38
2018-04-01T07:13:49.297Z,129.38
2018-04-01T07:14:49.488Z,129.38
2018-04-01T07:15:49.671Z,129.38
2018-04-01T07:16:49.843Z,129.38
2018-04-01T07:17:50.027Z,129.38
2018-04-01T07:18:50.214Z,135.00
2018-04-01T07:19:50.379Z,140.63
2018-04-01T07:20:50.568Z,157.50
2018-04-01T07:21:50.750Z,174.38
2018-04-01T07:22:50.932Z,185.63
2018-04-01T07:23:51.126Z,196.88
2018-04-01T07:24:52.939Z,208.13
2018-04-01T07:25:53.094Z,219.38
2018-04-01T07:26:52.618Z,247.50
2018-04-01T07:27:52.816Z,275.63
2018-04-01T07:28:53.136Z,298.13
2018-04-01T07:29:53.799Z,331.88
2018-04-01T07:30:54.091Z,365.63
2018-04-01T07:31:53.969Z,405.00
2018-04-01T07:32:53.887Z,466.88
2018-04-01T07:33:55.832Z,511.88
2018-04-01T07:34:54.240Z,568.13
2018-04-01T07:35:54.964Z,652.50
2018-04-01T07:36:54.462Z,1186.88
2018-04-01T07:37:54.270Z,860.63
2018-04-01T07:38:55.143Z,3003.75
2018-04-01T07:39:55.919Z,1215.00
2018-04-01T07:40:55.459Z,922.50
2018-04-01T07:41:55.142Z,855.00
2018-04-01T07:42:55.023Z,939.38
2018-04-01T07:43:55.993Z,1468.13
2018-04-01T07:44:54.873Z,1805.63
2018-04-01T07:45:55.637Z,781.88
2018-04-01T07:46:55.893Z,1305.00
2018-04-01T07:47:56.395Z,618.75
2018-04-01T07:48:57.552Z,478.13
2018-04-01T07:49:55.588Z,433.13
2018-04-01T07:50:55.757Z,388.13
2018-04-01T07:51:55.945Z,343.13
2018-04-01T07:52:57.076Z,410.63
2018-04-01T07:53:56.227Z,478.13
2018-04-01T07:54:56.417Z,556.88
2018-04-01T07:55:56.631Z,601.88
2018-04-01T07:56:56.810Z,568.13
2018-04-01T07:57:56.978Z,663.75
2018-04-01T07:58:57.171Z,742.50
2018-04-01T07:59:57.440Z,832.50
2018-04-01T08:00:57.563Z,1591.88
2018-04-01T08:01:57.748Z,1608.75
2018-04-01T08:02:57.937Z,945.00
2018-04-01T08:03:58.112Z,714.38
2018-04-01T08:04:58.295Z,663.75
2018-04-01T08:05:58.470Z,624.38
2018-04-01T08:06:58.655Z,646.88
2018-04-01T08:07:58.868Z,753.75
2018-04-01T08:08:59.051Z,646.88
2018-04-01T08:09:59.232Z,551.25
2018-04-01T08:10:59.531Z,579.38
2018-04-01T08:11:59.538Z,618.75
2018-04-01T08:12:59.954Z,652.50
2018-04-01T08:13:59.962Z,686.25
2018-04-01T08:15:00.267Z,731.25
2018-04-01T08:16:00.400Z,843.75
2018-04-01T08:17:00.647Z,883.13
2018-04-01T08:18:00.654Z,798.75
2018-04-01T08:19:00.841Z,826.88
2018-04-01T08:20:01.328Z,725.63
2018-04-01T08:21:01.533Z,618.75
2018-04-01T08:22:01.461Z,556.88
2018-04-01T08:23:01.476Z,556.88
2018-04-01T08:24:01.681Z,528.75
2018-04-01T08:25:01.952Z,506.25
2018-04-01T08:26:02.013Z,455.63
2018-04-01T08:27:02.200Z,348.75
2018-04-01T08:28:02.385Z,270.00
2018-04-01T08:29:02.571Z,236.25
2018-04-01T08:30:02.749Z,213.75
2018-04-01T08:31:02.941Z,202.50
2018-04-01T08:32:03.234Z,208.13
2018-04-01T08:33:03.288Z,225.00
2018-04-01T08:34:03.482Z,309.38
2018-04-01T08:35:03.668Z,309.38
2018-04-01T08:36:03.875Z,258.75
2018-04-01T08:37:04.073Z,253.13
2018-04-01T08:38:04.246Z,264.38
2018-04-01T08:39:04.428Z,270.00
2018-04-01T08:40:07.610Z,270.00
2018-04-01T08:41:05.810Z,247.50
2018-04-01T08:42:07.056Z,213.75
2018-04-01T08:43:05.080Z,202.50
2018-04-01T08:44:05.227Z,196.88
2018-04-01T08:45:05.435Z,202.50
2018-04-01T08:46:05.640Z,196.88
2018-04-01T08:47:05.836Z,208.13
2018-04-01T08:48:06.017Z,213.75
2018-04-01T08:49:06.202Z,185.63
2018-04-01T08:50:06.377Z,168.75
2018-04-01T08:51:06.559Z,146.25
2018-04-01T08:52:06.756Z,123.75
2018-04-01T08:53:06.944Z,112.50
2018-04-01T08:54:07.117Z,118.13
2018-04-01T08:55:07.416Z,135.00
2018-04-01T08:56:07.454Z,151.88
2018-04-01T08:57:07.638Z,151.88
2018-04-01T08:58:07.818Z,146.25
2018-04-01T08:59:08.003Z,157.50
2018-04-01T09:00:08.182Z,174.38
2018-04-01T09:01:08.353Z,191.25
2018-04-01T09:02:08.531Z,202.50
2018-04-01T09:03:08.727Z,230.63
2018-04-01T09:04:08.901Z,264.38
2018-04-01T09:05:09.086Z,320.63
2018-04-01T09:06:09.258Z,343.13
2018-04-01T09:07:09.435Z,348.75
2018-04-01T09:08:09.614Z,348.75
2018-04-01T09:09:09.793Z,348.75
2018-04-01T09:10:09.973Z,348.75
2018-04-01T09:11:10.154Z,371.25
2018-04-01T09:12:13.932Z,433.13
2018-04-01T09:13:11.126Z,579.38
2018-04-01T09:14:10.685Z,601.88
2018-04-01T09:15:10.860Z,438.75
2018-04-01T09:16:11.046Z,410.63
2018-04-01T09:17:11.223Z,478.13
2018-04-01T09:18:11.427Z,635.63
2018-04-01T09:19:11.609Z,590.63
2018-04-01T09:20:11.802Z,703.13
2018-04-01T09:21:11.990Z,866.25
2018-04-01T09:22:12.227Z,646.88
2018-04-01T09:23:12.349Z,607.50
2018-04-01T09:24:19.171Z,590.63
2018-04-01T09:25:12.782Z,489.38
2018-04-01T09:26:12.957Z,416.25
2018-04-01T09:27:13.152Z,354.38
2018-04-01T09:28:16.219Z,343.13
2018-04-01T09:29:16.292Z,376.88
2018-04-01T09:30:15.772Z,466.88
2018-04-01T09:31:19.305Z,562.50
2018-04-01T09:32:15.583Z,388.13
2018-04-01T09:33:16.251Z,337.50
2018-04-01T09:34:16.425Z,270.00
2018-04-01T09:35:16.387Z,236.25
2018-04-01T09:36:16.027Z,230.63
2018-04-01T09:37:18.935Z,230.63
2018-04-01T09:38:15.884Z,213.75
2018-04-01T09:39:16.143Z,180.00
2018-04-01T09:40:16.910Z,157.50
2018-04-01T09:41:18.388Z,191.25
2018-04-01T09:42:17.494Z,230.63
2018-04-01T09:43:19.200Z,348.75
2018-04-01T09:44:16.818Z,765.00
2018-04-01T09:45:16.207Z,1310.63
2018-04-01T09:46:16.024Z,1040.63
2018-04-01T09:47:16.199Z,855.00
2018-04-01T09:48:16.388Z,590.63
2018-04-01T09:49:16.593Z,444.38
2018-04-01T09:50:16.809Z,489.38
2018-04-01T09:51:16.954Z,388.13
2018-04-01T09:52:17.136Z,270.00
2018-04-01T09:53:17.323Z,196.88
2018-04-01T09:54:17.507Z,140.63
2018-04-01T09:55:17.697Z,135.00
2018-04-01T09:56:17.881Z,129.38
2018-04-01T09:57:18.058Z,140.63
2018-04-01T09:58:21.964Z,146.25
2018-04-01T09:59:18.406Z,135.00
2018-04-01T10:00:18.591Z,140.63
2018-04-01T10:01:18.776Z,146.25
2018-04-01T10:02:18.952Z,140.63
2018-04-01T10:03:19.134Z,129.38
2018-04-01T10:04:19.316Z,123.75
2018-04-01T10:05:19.497Z,112.50
2018-04-01T10:06:19.676Z,106.88
2018-04-01T10:07:19.857Z,101.25
2018-04-01T10:08:20.041Z,90.00
2018-04-01T10:09:20.214Z,73.13
2018-04-01T10:10:20.397Z,73.13
2018-04-01T10:11:20.572Z,78.75
2018-04-01T10:12:20.751Z,84.38
2018-04-01T10:13:20.930Z,90.00
2018-04-01T10:14:21.107Z,95.63
2018-04-01T10:15:21.277Z,112.50
2018-04-01T10:16:21.450Z,135.00
2018-04-01T10:17:21.624Z,163.13
2018-04-01T10:18:21.805Z,180.00
2018-04-01T10:19:21.994Z,196.88
2018-04-01T10:20:22.167Z,230.63
2018-04-01T10:21:22.346Z,298.13
2018-04-01T10:22:22.522Z,315.00
2018-04-01T10:23:22.705Z,320.63
2018-04-01T10:24:22.875Z,337.50
2018-04-01T10:25:23.053Z,337.50
2018-04-01T10:26:23.229Z,343.13
2018-04-01T10:27:23.412Z,343.13
2018-04-01T10:28:23.596Z,309.38
2018-04-01T10:29:23.833Z,303.75
2018-04-01T10:30:23.953Z,337.50
2018-04-01T10:31:24.131Z,315.00
2018-04-01T10:32:24.308Z,331.88
2018-04-01T10:33:24.490Z,320.63
2018-04-01T10:34:24.668Z,264.38
2018-04-01T10:35:24.840Z,275.63
2018-04-01T10:36:25.015Z,275.63
2018-04-01T10:37:25.198Z,281.25
2018-04-01T10:38:25.383Z,298.13
2018-04-01T10:39:25.564Z,264.38
2018-04-01T10:40:29.166Z,264.38
2018-04-01T10:41:28.797Z,236.25
2018-04-01T10:42:28.898Z,219.38
2018-04-01T10:43:30.636Z,219.38
2018-04-01T10:44:26.462Z,225.00
2018-04-01T10:45:31.391Z,230.63
2018-04-01T10:46:31.515Z,247.50
2018-04-01T10:47:30.006Z,275.63
2018-04-01T10:48:30.141Z,309.38
2018-04-01T10:49:31.354Z,320.63
2018-04-01T10:50:27.383Z,303.75
2018-04-01T10:51:30.834Z,275.63
2018-04-01T10:52:30.169Z,247.50
2018-04-01T10:53:28.085Z,247.50
2018-04-01T10:54:29.874Z,270.00
2018-04-01T10:55:30.115Z,298.13
2018-04-01T10:56:30.127Z,309.38
2018-04-01T10:57:32.948Z,298.13
2018-04-01T10:58:32.029Z,275.63
2018-04-01T10:59:28.823Z,264.38
2018-04-01T11:00:28.997Z,253.13
2018-04-01T11:01:29.177Z,247.50
2018-04-01T11:02:29.362Z,247.50
2018-04-01T11:03:29.545Z,258.75
2018-04-01T11:04:29.740Z,281.25
2018-04-01T11:05:29.930Z,309.38
2018-04-01T11:06:30.106Z,331.88
2018-04-01T11:07:30.302Z,331.88
2018-04-01T11:08:30.505Z,331.88
2018-04-01T11:09:30.694Z,348.75
2018-04-01T11:10:30.874Z,399.38
2018-04-01T11:11:31.081Z,416.25
2018-04-01T11:12:31.278Z,483.75
2018-04-01T11:13:31.461Z,455.63
2018-04-01T11:14:31.641Z,438.75
2018-04-01T11:15:32.169Z,416.25
2018-04-01T11:16:31.965Z,376.88
2018-04-01T11:17:32.149Z,343.13
2018-04-01T11:18:32.332Z,320.63
2018-04-01T11:19:35.864Z,298.13
2018-04-01T11:20:32.739Z,286.88
2018-04-01T11:21:35.694Z,292.50
2018-04-01T11:22:34.472Z,309.38
2018-04-01T11:23:33.631Z,315.00
2018-04-01T11:24:34.521Z,326.25
2018-04-01T11:25:36.572Z,331.88
2018-04-01T11:26:35.470Z,360.00
2018-04-01T11:27:34.709Z,405.00
2018-04-01T11:28:35.313Z,466.88
2018-04-01T11:29:34.964Z,556.88
2018-04-01T11:30:38.839Z,556.88
2018-04-01T11:31:36.732Z,703.13
2018-04-01T11:32:38.079Z,618.75
2018-04-01T11:33:35.566Z,528.75
2018-04-01T11:34:39.267Z,393.75
2018-04-01T11:35:36.041Z,320.63
2018-04-01T11:36:36.600Z,270.00
2018-04-01T11:37:38.136Z,247.50
2018-04-01T11:38:36.521Z,208.13
2018-04-01T11:39:37.479Z,225.00
2018-04-01T11:40:35.944Z,213.75
2018-04-01T11:41:37.171Z,253.13
2018-04-01T11:42:36.335Z,264.38
2018-04-01T11:43:36.532Z,258.75
2018-04-01T11:44:36.699Z,264.38
2018-04-01T11:45:36.878Z,247.50
2018-04-01T11:46:37.061Z,241.88
2018-04-01T11:47:37.702Z,236.25
2018-04-01T11:48:37.445Z,264.38
2018-04-01T11:49:37.625Z,303.75
2018-04-01T11:50:37.818Z,303.75
2018-04-01T11:51:37.997Z,303.75
2018-04-01T11:52:38.237Z,315.00
2018-04-01T11:53:38.296Z,303.75
2018-04-01T11:54:38.629Z,281.25
2018-04-01T11:55:38.750Z,225.00
2018-04-01T11:56:38.844Z,213.75
2018-04-01T11:57:38.993Z,219.38
2018-04-01T11:58:39.231Z,253.13
2018-04-01T11:59:39.292Z,292.50
2018-04-01T12:00:39.472Z,320.63
2018-04-01T12:01:41.616Z,348.75
2018-04-01T12:02:41.081Z,376.88
2018-04-01T12:03:42.568Z,421.88
2018-04-01T12:04:40.714Z,495.00
2018-04-01T12:05:40.257Z,590.63
2018-04-01T12:06:40.444Z,596.25
2018-04-01T12:07:40.644Z,613.13
2018-04-01T12:08:40.826Z,613.13
2018-04-01T12:09:42.286Z,596.25
2018-04-01T12:10:42.491Z,680.63
2018-04-01T12:11:41.339Z,669.38
2018-04-01T12:12:41.523Z,641.25
2018-04-01T12:13:41.862Z,646.88
2018-04-01T12:14:41.921Z,596.25
2018-04-01T12:15:42.106Z,562.50
2018-04-01T12:16:42.690Z,517.50
2018-04-01T12:17:42.491Z,461.25
2018-04-01T12:18:42.790Z,466.88
2018-04-01T12:19:43.226Z,444.38
2018-04-01T12:20:42.954Z,421.88
2018-04-01T12:21:43.640Z,421.88
2018-04-01T12:22:43.420Z,433.13
2018-04-01T12:23:43.602Z,444.38
2018-04-01T12:24:43.804Z,455.63
2018-04-01T12:25:43.856Z,461.25
2018-04-01T12:26:44.603Z,506.25
2018-04-01T12:27:44.168Z,545.63
2018-04-01T12:28:44.779Z,545.63
2018-04-01T12:29:44.465Z,517.50
2018-04-01T12:30:44.715Z,500.63
2018-04-01T12:31:44.774Z,478.13
2018-04-01T12:32:44.967Z,450.00
2018-04-01T12:33:45.166Z,444.38
2018-04-01T12:34:45.342Z,421.88
2018-04-01T12:35:45.601Z,399.38
2018-04-01T12:36:45.658Z,365.63
2018-04-01T12:37:45.836Z,348.75
2018-04-01T12:38:46.060Z,337.50
2018-04-01T12:39:46.194Z,315.00
2018-04-01T12:40:46.379Z,320.63
2018-04-01T12:41:47.919Z,292.50
2018-04-01T12:42:46.744Z,320.63
2018-04-01T12:43:47.213Z,331.88
2018-04-01T12:44:47.136Z,315.00
2018-04-01T12:45:47.317Z,315.00
2018-04-01T12:46:47.515Z,337.50
2018-04-01T12:47:47.776Z,360.00
2018-04-01T12:48:47.839Z,348.75
2018-04-01T12:49:48.022Z,371.25
2018-04-01T12:50:48.196Z,365.63
2018-04-01T12:51:48.375Z,320.63
2018-04-01T12:52:48.974Z,309.38
2018-04-01T12:53:48.779Z,360.00